METAR Data
IDs: Format: Raw Decoded Include TAF

Data at: 2046 UTC 14 Dec 2018

KMFE 141953Z 30022G40KT 10SM CLR 21/M05 A3014 RMK AO2 PK WND 29040/1947 SLP203 T02061050
KMFE 141853Z 30025G36KT 10SM CLR 21/M04 A3015 RMK AO2 PK WND 29037/1841 RAE07 SLP207 P0000 T02111039
KMFE 141807Z 32022G32KT 10SM CLR 21/M03 A3016 RMK AO2 PK WND 32032/1804 RAE07 P0000 T02061033
KMFE 141753Z 30022G32KT 10SM -RA CLR 19/M03 A3017 RMK AO2 PK WND 32039/1738 RAB1655E27B43 SLP217 P0000 60000 T01941033 10200 20122 58005
KMFE 141653Z 30023G36KT 10SM CLR 19/M03 A3020 RMK AO2 PK WND 30041/1627 RAB34E45 SLP224 P0000 T01891028
KMFE 141553Z 30015G31KT 10SM CLR 18/M04 A3020 RMK AO2 PK WND 32032/1533 SLP224 T01781044
KMFE 141453Z 31016G25KT 10SM CLR 15/M04 A3019 RMK AO2 PK WND 31029/1437 SLP222 T01501039 51023
KMFE 141353Z 31017G24KT 10SM CLR 13/M05 A3016 RMK AO2 SLP214 T01331050
KMFE 141253Z 30010G18KT 10SM CLR 13/M06 A3015 RMK AO2 SLP208 T01281056
KMFE 141153Z 30013G21KT 10SM CLR 14/M05 A3012 RMK AO2 PK WND 31026/1101 SLP198 T01391050 10161 20133 53007
KMFE 141053Z AUTO 31013G22KT 10SM CLR 14/M03 A3011 RMK AO2 SLP193 T01391028
KMFE 140953Z 31012KT 10SM CLR 14/M02 A3010 RMK AO2 SLP190 T01391017
KMFE 140853Z 31014G23KT 10SM CLR 15/M03 A3010 RMK AO2 SLP191 T01501028 50008
KMFE 140753Z 30016G22KT 10SM CLR 16/M03 A3012 RMK AO2 SLP196 T01561028
KMFE 140653Z 31013G24KT 10SM CLR 16/M03 A3010 RMK AO2 PK WND 32033/0603 SLP191 T01611028
KMFE 140553Z 32023G32KT 10SM CLR 16/M02 A3008 RMK AO2 PK WND 32035/0540 SLP182 60000 T01611022 10228 20128 403000128 50014
KMFE 140453Z 32014G27KT 10SM CLR 16/M01 A3008 RMK AO2 PK WND 34027/0446 SLP184 T01561011
KMFE 140353Z 33013KT 10SM CLR 15/02 A3008 RMK AO2 PK WND 32030/0300 SLP183 T01500017
KMFE 140253Z 33020G28KT 10SM CLR 14/03 A3003 RMK AO2 PK WND 32028/0253 SLP169 60000 T01390028 51049
KMFE 140153Z 34015G23KT 10SM CLR 17/03 A3002 RMK AO2 PK WND 34032/0101 RAE00 SLP163 P0000 T01720028
KMFE 140053Z 34016G31KT 10SM -RA SCT110 19/03 A2997 RMK AO2 PK WND 34035/2357 RAB50 SLP147 P0000 T01890028
KMFE 132353Z 34026G34KT 10SM CLR 23/02 A2989 RMK AO2 PK WND 34041/2334 PRESRR SLP119 T02280022 10300 20228 53042
KMFE 132253Z 34015G25KT 10SM CLR 27/09 A2981 RMK AO2 SLP092 T02720089
KMFE 132153Z 32014G18KT 10SM CLR 29/09 A2978 RMK AO2 SLP081 T02940089
KMFE 132053Z 31012G18KT 10SM CLR 29/13 A2977 RMK AO2 SLP077 T02940128 56015
KMFE 131953Z 32007KT 10SM CLR 29/13 A2977 RMK AO2 SLP078 T02940133
KMFE 131858Z 30006KT 10SM CLR 29/14 A2979 RMK AO2 T02890139
KMFE 131853Z 30009KT 3SM HZ CLR 29/15 A2979 RMK AO2 SLP086 T02890150
KMFE 131753Z 26008KT 10SM CLR 27/17 A2981 RMK AO2 SLP093 T02720167 10272 20167 58008
KMFE 131653Z 28005KT 10SM CLR 26/19 A2983 RMK AO2 SLP098 T02560189
KMFE 131553Z VRB05KT 10SM CLR 23/19 A2984 RMK AO2 SLP103 T02280189
KMFE 131453Z 22003KT 6SM BR CLR 19/19 A2983 RMK AO2 SLP101 T01890189 53014
KMFE 131428Z 00000KT 3SM BR FEW003 18/18 A2982 RMK AO2 T01830183
KMFE 131411Z 00000KT 2SM BR SCT003 18/18 A2982 RMK AO2 T01830183
KMFE 131404Z 26003KT 1SM BR VV003 18/18 A2982 RMK AO2 T01780178
KMFE 131353Z 24003KT 1/4SM FG VV002 17/17 A2982 RMK AO2 SLP096 T01720172
KMFE 131330Z 30003KT M1/4SM FG VV002 17/17 A2981 RMK AO2 T01720172
KMFE 131321Z 00000KT 3/4SM BR VV002 18/17 A2981 RMK AO2 T01780172
KMFE 131313Z 00000KT 1 1/2SM BR FEW003 18/17 A2980 RMK AO2 T01780172
KMFE 131307Z 00000KT 2SM BR CLR 18/17 A2980 RMK AO2 T01780172
KMFE 131253Z 00000KT 3SM BR CLR 18/17 A2980 RMK AO2 SLP088 T01780172
KMFE 131153Z 17003KT 6SM BR CLR 18/18 A2979 RMK AO2 SLP086 P0001 60020 70029 T01830178 10206 20183 55029
KMFE 131053Z AUTO 14004KT 10SM FEW022 19/18 A2978 RMK AO2 RAE37 SLP083 P0002 T01890183
KMFE 130953Z AUTO 35007KT 7SM -RA FEW014 BKN075 OVC110 19/19 A2986 RMK AO2 LTG DSNT NE SLP108 P0010 T01940189
KMFE 130930Z AUTO 31008KT 7SM -RA FEW041 BKN075 OVC100 20/19 A2988 RMK AO2 LTG DSNT NE P0006 T02000189
KMFE 130853Z AUTO 30010G19KT 8SM VCTS -RA FEW007 BKN060 OVC110 20/19 A2988 RMK AO2 LTG DSNT N AND NE RAB53 SLP116 P0002 60007 T02000189 55002
KMFE 130849Z AUTO 29013KT 10SM VCTS FEW007 SCT060 BKN075 20/19 A2989 RMK AO2 LTG DSNT N PRESRR